Time;durP1;ratioP1;P1;durP2;ratioP2;P2;SDS_P1;SDS_P2;PMS_P1;PMS_P2;Temp;Humidity;BMP_temperature;BMP_pressure;BME280_temperature;BME280_humidity;BME280_pressure;Samples;Min_cycle;Max_cycle;Signal;HPM_P1;HPM_P2
2024/03/09 00:01:49;;;;;;;;;;;;;;;5.95;100.00;98495.78;4990493;28;20353;-84
2024/03/09 00:04:15;;;;;;;;;;;;;;;5.94;100.00;98501.94;4973706;28;19921;-86
2024/03/09 00:06:40;;;;;;;;;;;;;;;5.94;100.00;98503.72;4975037;28;20296;-82
2024/03/09 00:09:05;;;;;;;;;;;;;;;5.94;100.00;98506.38;4992821;28;19992;-90
2024/03/09 00:11:31;;;;;;;;;;;;;;;5.91;100.00;98491.56;4992708;28;19929;-84
2024/03/09 00:13:57;;;;;;;;;;;;;;;5.91;100.00;98477.56;4990941;28;19918;-82
2024/03/09 00:16:22;;;;;;;;;;;;;;;5.96;100.00;98458.06;4974631;28;20416;-83
2024/03/09 00:18:48;;;;;;;;;;;;;;;5.97;100.00;98461.56;4990810;28;19921;-85
2024/03/09 00:21:13;;;;;;;;;;;;;;;5.95;100.00;98448.44;4992096;28;20020;-85
2024/03/09 00:23:40;;;;;;;;;;;;;;;5.93;100.00;98441.53;4992549;28;19926;-84
2024/03/09 00:26:07;;;;;;;;;;;;;;;5.93;100.00;98434.50;4991910;28;19925;-82
2024/03/09 00:28:32;;;;;;;;;;;;;;;5.92;100.00;98437.19;4992546;28;20329;-83
2024/03/09 00:30:59;;;;;;;;;;;;;;;5.94;100.00;98436.22;4992453;28;19925;-83
2024/03/09 00:33:24;;;;;;;;;;;;;;;5.94;100.00;98436.22;4973794;28;19925;-87
2024/03/09 00:35:50;;;;;;;;;;;;;;;5.92;100.00;98430.19;4974881;28;19930;-86
2024/03/09 00:38:17;;;;;;;;;;;;;;;5.92;100.00;98424.94;4975083;28;19918;-83
2024/03/09 00:40:43;;;;;;;;;;;;;;;5.91;100.00;98425.00;4992504;28;20004;-83
2024/03/09 00:43:08;;;;;;;;;;;;;;;5.90;100.00;98418.03;4996383;28;19963;-84
2024/03/09 00:45:34;;;;;;;;;;;;;;;5.87;100.00;98413.78;4996381;28;19925;-85
2024/03/09 00:47:59;;;;;;;;;;;;;;;5.94;100.00;98409.09;4977597;28;19917;-84
2024/03/09 00:50:26;;;;;;;;;;;;;;;5.89;100.00;98400.53;4996358;28;19918;-86
2024/03/09 00:52:52;;;;;;;;;;;;;;;5.87;100.00;98397.13;4996146;28;19969;-86
2024/03/09 00:55:19;;;;;;;;;;;;;;;5.88;100.00;98383.06;4978961;28;19917;-85
2024/03/09 00:57:45;;;;;;;;;;;;;;;5.84;100.00;98379.75;4978675;28;19914;-83
2024/03/09 01:00:11;;;;;;;;;;;;;;;5.89;100.00;98361.97;4978279;28;19973;-90
2024/03/09 01:02:41;;;;;;;;;;;;;;;5.87;100.00;98369.09;4977681;28;19968;-82
2024/03/09 01:05:07;;;;;;;;;;;;;;;5.83;100.00;98357.84;4978382;28;19913;-82
2024/03/09 01:07:32;;;;;;;;;;;;;;;5.83;100.00;98370.97;4996052;28;19968;-84
2024/03/09 01:09:58;;;;;;;;;;;;;;;5.81;100.00;98362.31;4995125;28;19914;-82
2024/03/09 01:12:28;;;;;;;;;;;;;;;5.83;100.00;98363.09;4995712;28;19917;-87
2024/03/09 06:24:22;;;;;;;;;;;;;;;5.53;100.00;98241.00;5327588;23;19988;-82
2024/03/09 06:26:47;;;;;;;;;;;;;;;5.49;100.00;98240.31;4992892;28;19922;-83
2024/03/09 06:29:13;;;;;;;;;;;;;;;5.48;100.00;98243.84;4994890;28;19926;-85
2024/03/09 06:31:38;;;;;;;;;;;;;;;5.51;100.00;98241.09;4977036;28;20005;-83
2024/03/09 06:34:03;;;;;;;;;;;;;;;5.51;100.00;98240.25;4994590;28;20339;-83
2024/03/09 06:36:29;;;;;;;;;;;;;;;5.52;100.00;98240.16;4994626;28;19924;-83
2024/03/09 06:38:55;;;;;;;;;;;;;;;5.51;100.00;98242.88;4992373;28;19922;-84
2024/03/09 06:41:20;;;;;;;;;;;;;;;5.51;100.00;98243.72;4976947;28;19922;-84
2024/03/09 06:43:45;;;;;;;;;;;;;;;5.48;100.00;98235.97;4976879;28;20376;-88
2024/03/09 06:46:11;;;;;;;;;;;;;;;5.48;100.00;98241.22;4994264;28;20352;-83
2024/03/09 06:48:36;;;;;;;;;;;;;;;5.50;100.00;98242.00;4994376;28;20012;-84
2024/03/09 06:51:01;;;;;;;;;;;;;;;5.50;100.00;98241.16;4994192;28;19956;-83
2024/03/09 06:53:29;;;;;;;;;;;;;;;5.49;100.00;98244.69;4975292;28;19961;-84
2024/03/09 06:55:54;;;;;;;;;;;;;;;5.53;100.00;98236.59;4994094;28;20005;-84
2024/03/09 06:58:19;;;;;;;;;;;;;;;5.52;100.00;98242.78;4993970;28;20037;-84
2024/03/09 07:00:45;;;;;;;;;;;;;;;5.49;100.00;98239.44;4993841;28;20359;-83
2024/03/09 07:03:10;;;;;;;;;;;;;;;5.52;100.00;98252.44;4994093;28;19922;-84
2024/03/09 07:05:35;;;;;;;;;;;;;;;5.47;100.00;98250.00;4993998;28;19995;-85
2024/03/09 07:08:01;;;;;;;;;;;;;;;5.45;100.00;98241.38;4992519;28;20381;-84
2024/03/09 07:10:29;;;;;;;;;;;;;;;5.46;100.00;98246.53;4993854;28;19945;-84
2024/03/09 07:12:57;;;;;;;;;;;;;;;5.49;100.00;98242.94;4992903;28;19948;-85
2024/03/09 07:15:25;;;;;;;;;;;;;;;5.44;100.00;98250.16;4993723;28;19917;-87
2024/03/09 07:17:50;;;;;;;;;;;;;;;5.48;100.00;98251.72;4993661;28;19949;-85
2024/03/09 07:20:17;;;;;;;;;;;;;;;5.49;100.00;98250.81;4993834;28;19952;-82
2024/03/09 07:22:43;;;;;;;;;;;;;;;5.46;100.00;98245.72;4992493;28;20341;-83
2024/03/09 07:25:09;;;;;;;;;;;;;;;5.51;100.00;98248.13;4993505;28;19976;-85
2024/03/09 07:27:35;;;;;;;;;;;;;;;5.50;100.00;98239.38;4993602;28;20016;-85
2024/03/09 07:30:08;;;;;;;;;;;;;;;5.43;100.00;98240.59;4992032;28;20364;-86
2024/03/09 07:32:33;;;;;;;;;;;;;;;5.50;100.00;98241.16;4993434;28;19918;-84
2024/03/09 07:34:58;;;;;;;;;;;;;;;5.48;100.00;98243.84;4993403;28;19933;-85
2024/03/09 07:37:24;;;;;;;;;;;;;;;5.50;100.00;98238.53;4974486;28;19917;-84
2024/03/09 07:39:49;;;;;;;;;;;;;;;5.47;100.00;98236.88;4993471;28;19918;-81
2024/03/09 07:42:15;;;;;;;;;;;;;;;5.51;100.00;98238.44;4993566;28;19918;-81
2024/03/09 07:44:40;;;;;;;;;;;;;;;5.50;100.00;98235.91;4975798;28;19921;-84
2024/03/09 07:47:08;;;;;;;;;;;;;;;5.51;100.00;98238.44;4993163;28;19925;-85
2024/03/09 07:49:33;;;;;;;;;;;;;;;5.50;100.00;98241.16;4993090;28;20000;-86
2024/03/09 07:51:58;;;;;;;;;;;;;;;5.50;100.00;98236.75;4975658;28;20025;-82
2024/03/09 07:54:24;;;;;;;;;;;;;;;5.54;100.00;98243.56;4991830;28;19997;-82
2024/03/09 07:56:49;;;;;;;;;;;;;;;5.53;100.00;98241.84;4991819;28;19929;-81
2024/03/09 07:59:15;;;;;;;;;;;;;;;5.52;100.00;98239.28;4992907;28;19917;-81
2024/03/09 08:01:41;;;;;;;;;;;;;;;5.51;100.00;98233.19;4993091;28;20021;-82
2024/03/09 08:04:06;;;;;;;;;;;;;;;5.51;100.00;98230.56;4992781;28;19972;-82
2024/03/09 08:06:31;;;;;;;;;;;;;;;5.53;100.00;98235.75;4992970;28;19972;-81
2024/03/09 08:08:57;;;;;;;;;;;;;;;5.51;100.00;98222.69;4974105;28;20325;-82
2024/03/09 08:11:23;;;;;;;;;;;;;;;5.48;100.00;98217.56;4975511;28;19925;-82
2024/03/09 08:57:40;;;;;;;;;;;;;;;5.44;100.00;98195.00;5028151;28;19998;-87
2024/03/09 09:00:06;;;;;;;;;;;;;;;5.45;100.00;98192.28;5041571;28;20314;-82
2024/03/09 09:02:31;;;;;;;;;;;;;;;5.44;100.00;98187.09;5043377;28;19917;-83
2024/03/09 09:04:57;;;;;;;;;;;;;;;5.44;100.00;98180.09;5045767;28;19917;-82
2024/03/09 09:07:23;;;;;;;;;;;;;;;5.44;100.00;98187.97;5045574;28;19924;-82
2024/03/09 09:09:48;;;;;;;;;;;;;;;5.50;100.00;98178.94;5045385;28;19976;-82
2024/03/09 09:12:15;;;;;;;;;;;;;;;5.46;100.00;98174.78;5018651;28;20465;-86
2024/03/09 09:14:42;;;;;;;;;;;;;;;5.48;100.00;98169.44;5045161;28;19921;-84
2024/03/09 09:17:08;;;;;;;;;;;;;;;5.48;100.00;98175.53;5019125;28;19921;-83
2024/03/09 09:19:34;;;;;;;;;;;;;;;5.45;100.00;98175.69;5044169;28;19962;-84
2024/03/09 09:21:59;;;;;;;;;;;;;;;5.46;100.00;98174.78;5045185;28;20011;-83
2024/03/09 09:24:24;;;;;;;;;;;;;;;5.50;100.00;98170.22;5019704;28;20048;-83
2024/03/09 09:26:50;;;;;;;;;;;;;;;5.51;100.00;98169.31;5043794;28;19924;-84
2024/03/09 09:29:15;;;;;;;;;;;;;;;5.46;100.00;98169.53;5045615;28;19921;-82
2024/03/09 09:31:40;;;;;;;;;;;;;;;5.50;100.00;98163.19;5044700;28;20024;-83
2024/03/09 09:34:07;;;;;;;;;;;;;;;5.48;100.00;98159.78;5044544;28;19967;-83
2024/03/09 09:36:32;;;;;;;;;;;;;;;5.55;100.00;98165.59;5044904;28;19917;-81
2024/03/09 09:39:01;;;;;;;;;;;;;;;5.54;100.00;98162.13;5044915;28;20000;-83
2024/03/09 09:41:29;;;;;;;;;;;;;;;5.54;100.00;98159.50;5017873;28;20358;-89
2024/03/09 09:43:58;;;;;;;;;;;;;;;5.49;100.00;98161.50;5045031;28;20338;-83
2024/03/09 09:46:29;;;;;;;;;;;;;;;5.49;100.00;98151.00;5034454;28;20015;-82
2024/03/09 09:48:54;;;;;;;;;;;;;;;5.53;100.00;98144.63;5044640;28;20327;-82
2024/03/09 09:51:24;;;;;;;;;;;;;;;5.51;100.00;98149.13;5044644;28;19917;-85
2024/03/09 09:53:52;;;;;;;;;;;;;;;5.53;100.00;98144.63;5043885;28;19928;-85
2024/03/09 09:56:19;;;;;;;;;;;;;;;5.59;100.00;98148.75;5042101;28;19917;-82
2024/03/09 09:58:44;;;;;;;;;;;;;;;5.60;100.00;98143.44;5044609;28;20280;-81
2024/03/09 10:01:09;;;;;;;;;;;;;;;5.59;100.00;98140.88;5018972;28;19967;-83
2024/03/09 10:03:36;;;;;;;;;;;;;;;5.64;100.00;98134.44;5044101;28;19943;-84
2024/03/09 10:06:01;;;;;;;;;;;;;;;5.60;100.00;98119.78;5044741;28;20260;-83
2024/03/09 10:08:27;;;;;;;;;;;;;;;5.59;100.00;98122.47;5017181;28;19924;-83
2024/03/09 10:10:52;;;;;;;;;;;;;;;5.56;100.00;98120.00;5042791;28;19928;-83
2024/03/09 10:13:18;;;;;;;;;;;;;;;5.58;100.00;98115.50;5018812;28;19924;-84
2024/03/09 10:15:44;;;;;;;;;;;;;;;5.56;100.00;98112.97;5018030;28;19917;-85
2024/03/09 10:18:11;;;;;;;;;;;;;;;5.58;100.00;98111.09;5017855;28;20260;-85
2024/03/09 10:20:38;;;;;;;;;;;;;;;5.57;100.00;98109.41;5019003;28;19917;-83
2024/03/09 10:23:04;;;;;;;;;;;;;;;5.54;100.00;98104.31;5018134;28;19927;-83
2024/03/09 10:25:35;;;;;;;;;;;;;;;5.63;100.00;98098.63;5041890;28;19924;-82
2024/03/09 10:28:01;;;;;;;;;;;;;;;5.62;100.00;98094.28;5043131;28;20336;-83
2024/03/09 10:30:26;;;;;;;;;;;;;;;5.57;100.00;98093.66;5016937;28;20011;-82
2024/03/09 10:32:55;;;;;;;;;;;;;;;5.62;100.00;98082.91;5018400;28;20284;-83
2024/03/09 10:35:24;;;;;;;;;;;;;;;5.66;100.00;98080.97;5042957;28;19917;-83
2024/03/09 10:37:51;;;;;;;;;;;;;;;5.57;100.00;98080.53;5014326;28;20446;-82
2024/03/09 10:40:20;;;;;;;;;;;;;;;5.62;100.00;98072.41;5042028;28;19917;-84
2024/03/09 10:42:46;;;;;;;;;;;;;;;5.66;100.00;98075.72;5043603;28;19924;-86
2024/03/09 10:45:12;;;;;;;;;;;;;;;5.63;100.00;98074.09;5044027;28;19961;-88
2024/03/09 10:47:48;;;;;;;;;;;;;;;5.57;100.00;98070.00;5043587;28;20342;-84
2024/03/09 10:50:18;;;;;;;;;;;;;;;5.57;100.00;98067.38;5017117;28;19921;-84
2024/03/09 10:52:50;;;;;;;;;;;;;;;5.64;100.00;98060.88;5016796;28;19936;-82
2024/03/09 10:55:19;;;;;;;;;;;;;;;5.66;100.00;98066.06;5015889;28;20212;-85
2024/03/09 10:57:46;;;;;;;;;;;;;;;5.65;100.00;98061.75;5017325;28;20020;-85
2024/03/09 11:00:14;;;;;;;;;;;;;;;5.66;100.00;98062.59;5017164;28;19917;-84
2024/03/09 11:02:42;;;;;;;;;;;;;;;5.60;100.00;98054.09;5017433;28;20286;-87
2024/03/09 11:05:08;;;;;;;;;;;;;;;5.60;100.00;98053.22;5017232;28;19987;-88
2024/03/09 11:07:35;;;;;;;;;;;;;;;5.60;100.00;98048.84;5042252;28;20190;-82
2024/03/09 11:10:02;;;;;;;;;;;;;;;5.63;100.00;98046.06;5043599;28;19921;-83
2024/03/09 11:12:30;;;;;;;;;;;;;;;5.69;100.00;98039.63;5016130;28;19991;-84
2024/03/09 11:14:56;;;;;;;;;;;;;;;5.64;100.00;98039.84;5017234;28;19921;-83
2024/03/09 11:17:30;;;;;;;;;;;;;;;5.62;100.00;98036.47;5043401;28;19917;-83
2024/03/09 11:20:02;;;;;;;;;;;;;;;5.68;100.00;98026.56;5016589;28;19975;-83
2024/03/09 11:22:40;;;;;;;;;;;;;;;5.67;100.00;98024.88;5016653;28;19917;-87
2024/03/09 11:25:11;;;;;;;;;;;;;;;5.64;100.00;98016.22;5041335;28;19921;-84
2024/03/09 11:27:38;;;;;;;;;;;;;;;5.64;100.00;98013.56;5016289;28;19917;-84
2024/03/09 11:30:05;;;;;;;;;;;;;;;5.66;100.00;98020.53;5041513;28;19924;-83
2024/03/09 11:32:31;;;;;;;;;;;;;;;5.66;100.00;98005.63;5042963;28;20417;-85
2024/03/09 11:35:18;;;;;;;;;;;;;;;5.70;100.00;98003.72;5042849;28;19917;-85
2024/03/09 11:37:44;;;;;;;;;;;;;;;5.68;100.00;97997.66;5016457;28;20361;-84
2024/03/09 11:40:11;;;;;;;;;;;;;;;5.65;100.00;97988.16;5015307;28;20394;-83
2024/03/09 11:42:38;;;;;;;;;;;;;;;5.71;100.00;97992.25;5016911;28;19921;-84
2024/03/09 11:48:11;;;;;;;;;;;;;;;5.74;100.00;97982.41;4980607;28;19918;-88
2024/03/09 11:50:40;;;;;;;;;;;;;;;5.74;100.00;97978.94;4980645;28;20455;-86
2024/03/09 11:53:08;;;;;;;;;;;;;;;5.71;100.00;97972.09;5015685;28;19925;-86
2024/03/09 11:55:38;;;;;;;;;;;;;;;5.67;100.00;97970.53;5040681;28;19928;-82
2024/03/09 11:58:03;;;;;;;;;;;;;;;5.70;100.00;97962.50;5042147;28;19970;-83
2024/03/09 12:01:13;;;;;;;;;;;;;;;5.72;100.00;97963.25;5042332;28;19920;-86
2024/03/09 12:03:39;;;;;;;;;;;;;;;5.71;100.00;97965.97;5041617;28;20012;-83
2024/03/09 12:06:04;;;;;;;;;;;;;;;5.73;100.00;97961.50;5042190;28;20007;-83
2024/03/09 12:08:30;;;;;;;;;;;;;;;5.69;100.00;97962.56;5042327;28;19917;-85
2024/03/09 12:10:57;;;;;;;;;;;;;;;5.73;100.00;97953.63;5040885;28;19917;-85
2024/03/09 12:13:26;;;;;;;;;;;;;;;5.71;100.00;97945.81;5042268;28;20307;-84
2024/03/09 12:15:52;;;;;;;;;;;;;;;5.70;100.00;97943.25;5042193;28;20492;-84
2024/03/09 12:18:17;;;;;;;;;;;;;;;5.75;100.00;97941.25;5042664;28;19917;-84
2024/03/09 12:20:47;;;;;;;;;;;;;;;5.72;100.00;97946.66;5041640;28;19924;-83
2024/03/09 12:23:15;;;;;;;;;;;;;;;5.77;100.00;97944.63;5042040;28;20276;-82
2024/03/09 12:25:43;;;;;;;;;;;;;;;5.75;100.00;97938.59;5014573;28;20016;-83
2024/03/09 12:28:09;;;;;;;;;;;;;;;5.72;100.00;97930.88;5041017;28;19928;-83
2024/03/09 12:30:35;;;;;;;;;;;;;;;5.78;100.00;97935.81;5041768;28;19925;-83
2024/03/09 12:33:01;;;;;;;;;;;;;;;5.80;100.00;97928.69;5041377;28;20008;-84
2024/03/09 12:35:26;;;;;;;;;;;;;;;5.73;100.00;97927.34;5041958;28;20415;-85
2024/03/09 12:37:51;;;;;;;;;;;;;;;5.81;100.00;97919.88;5044152;28;20019;-82
2024/03/09 12:40:19;;;;;;;;;;;;;;;5.75;100.00;97918.41;5044617;28;19921;-83
2024/03/09 12:42:45;;;;;;;;;;;;;;;5.78;100.00;97930.56;5046138;28;19916;-82
2024/03/09 12:45:24;;;;;;;;;;;;;;;5.72;100.00;97925.63;5046424;28;19944;-83
2024/03/09 12:47:56;;;;;;;;;;;;;;;5.78;100.00;97920.06;5044431;28;19917;-83
2024/03/09 12:50:22;;;;;;;;;;;;;;;5.76;100.00;97919.25;5045140;28;20363;-83
2024/03/09 12:52:48;;;;;;;;;;;;;;;5.78;100.00;97930.56;5045857;28;20286;-83
2024/03/09 12:55:16;;;;;;;;;;;;;;;5.81;100.00;97926.00;5018685;28;19940;-82
2024/03/09 12:57:42;;;;;;;;;;;;;;;5.81;100.00;97914.63;5044796;28;20298;-82
2024/03/09 13:00:12;;;;;;;;;;;;;;;5.78;100.00;97914.78;5019269;28;19925;-83
2024/03/09 13:02:37;;;;;;;;;;;;;;;5.80;100.00;97916.38;5045491;28;19913;-82
2024/03/09 13:07:59;;;;;;;;;;;;;;;5.82;100.00;97905.81;5129209;23;20053;-83
2024/03/09 13:10:25;;;;;;;;;;;;;;;5.82;100.00;97900.53;5024391;28;20054;-84
2024/03/09 13:12:51;;;;;;;;;;;;;;;5.80;100.00;97891.91;5024911;28;19929;-85
2024/03/09 13:15:20;;;;;;;;;;;;;;;5.86;100.00;97902.09;5025517;28;19925;-84
2024/03/09 13:17:46;;;;;;;;;;;;;;;5.84;100.00;97888.19;5025551;28;19917;-83
2024/03/09 13:20:17;;;;;;;;;;;;;;;5.81;100.00;97888.34;5024455;28;19985;-83
2024/03/09 13:22:48;;;;;;;;;;;;;;;5.84;100.00;97880.31;5024252;28;19917;-83
2024/03/09 13:25:14;;;;;;;;;;;;;;;5.83;100.00;97884.69;5023366;28;19925;-83
2024/03/09 13:27:42;;;;;;;;;;;;;;;5.80;100.00;97884.84;5025229;28;20326;-79
2024/03/09 13:30:17;;;;;;;;;;;;;;;5.83;100.00;97886.47;5025243;28;20020;-83
2024/03/09 13:32:45;;;;;;;;;;;;;;;5.88;100.00;97887.06;5024080;28;19967;-84
2024/03/09 13:35:14;;;;;;;;;;;;;;;5.85;100.00;97881.16;5025420;28;19951;-83
2024/03/09 13:37:40;;;;;;;;;;;;;;;5.91;100.00;97879.03;5024979;28;20273;-81
2024/03/09 13:40:06;;;;;;;;;;;;;;;5.84;100.00;97882.94;5024412;28;19931;-84
2024/03/09 13:42:31;;;;;;;;;;;;;;;5.83;100.00;97874.19;5024309;28;19917;-82
2024/03/09 13:44:56;;;;;;;;;;;;;;;5.89;100.00;97875.63;5025096;28;19921;-82
2024/03/09 13:47:24;;;;;;;;;;;;;;;5.91;100.00;97868.50;5025405;28;19921;-82
2024/03/09 13:49:50;;;;;;;;;;;;;;;5.91;100.00;97870.31;5006839;28;20396;-82
2024/03/09 13:52:15;;;;;;;;;;;;;;;5.88;100.00;97860.78;5024620;28;20394;-83
2024/03/09 13:54:44;;;;;;;;;;;;;;;5.92;100.00;97870.22;5024691;28;19925;-84
2024/03/09 13:57:10;;;;;;;;;;;;;;;5.93;100.00;97861.38;5023307;28;19924;-85
2024/03/09 13:59:36;;;;;;;;;;;;;;;5.85;100.00;97858.31;5024415;28;19917;-84
2024/03/09 14:02:02;;;;;;;;;;;;;;;5.95;100.00;97862.16;5024498;28;20012;-84
2024/03/09 14:04:28;;;;;;;;;;;;;;;5.92;100.00;97861.47;5024683;28;20370;-82
2024/03/09 14:06:53;;;;;;;;;;;;;;;5.92;100.00;97859.69;5024341;28;19941;-84
2024/03/09 14:09:19;;;;;;;;;;;;;;;5.88;100.00;97857.31;5024718;28;19924;-84
2024/03/09 14:11:45;;;;;;;;;;;;;;;5.88;100.00;97852.91;5023054;28;19913;-86
2024/03/09 14:14:11;;;;;;;;;;;;;;;5.87;100.00;97855.63;5006387;28;19921;-84
2024/03/09 14:16:38;;;;;;;;;;;;;;;5.87;100.00;97852.97;5024855;28;19917;-87
2024/03/09 14:19:05;;;;;;;;;;;;;;;5.85;100.00;97847.81;5006581;28;19948;-84
2024/03/09 14:21:31;;;;;;;;;;;;;;;5.92;100.00;97854.44;5006340;28;19921;-84
2024/03/09 14:23:57;;;;;;;;;;;;;;;5.87;100.00;97851.22;5024563;28;19924;-83
2024/03/09 14:26:24;;;;;;;;;;;;;;;5.88;100.00;97852.91;5005285;28;19925;-86
2024/03/09 14:28:50;;;;;;;;;;;;;;;5.83;100.00;97844.44;5006181;28;19922;-85
2024/03/09 14:31:15;;;;;;;;;;;;;;;5.83;100.00;97841.78;5006543;28;19924;-84
2024/03/09 14:33:43;;;;;;;;;;;;;;;5.86;100.00;97839.00;5006578;28;19921;-86
2024/03/09 14:36:12;;;;;;;;;;;;;;;5.92;100.00;97837.81;5023110;28;20388;-84
2024/03/09 14:38:41;;;;;;;;;;;;;;;5.89;100.00;97837.97;5024255;28;19928;-84
2024/03/09 14:41:09;;;;;;;;;;;;;;;5.91;100.00;97841.38;5004816;28;20015;-84
2024/03/09 14:43:41;;;;;;;;;;;;;;;5.91;100.00;97836.13;5023852;28;19917;-85
2024/03/09 14:46:10;;;;;;;;;;;;;;;5.82;100.00;97837.47;5006260;28;19970;-85
2024/03/09 14:48:35;;;;;;;;;;;;;;;5.86;100.00;97828.50;5023862;28;19917;-84
2024/03/09 14:51:01;;;;;;;;;;;;;;;5.84;100.00;97838.25;5023495;28;20052;-85
2024/03/09 14:53:26;;;;;;;;;;;;;;;5.86;100.00;97839.00;5006432;28;19917;-85
2024/03/09 14:55:55;;;;;;;;;;;;;;;5.86;100.00;97843.41;5004612;28;20361;-83
2024/03/09 14:58:20;;;;;;;;;;;;;;;5.87;100.00;97839.84;5022925;28;20008;-86
2024/03/09 15:03:14;;;;;;;;;;;;;;;5.87;100.00;97838.09;5023385;28;19925;-82
2024/03/09 15:05:43;;;;;;;;;;;;;;;5.88;100.00;97831.88;5023857;28;20293;-85
2024/03/09 15:08:14;;;;;;;;;;;;;;;5.90;100.00;97831.78;5023027;28;19964;-85
2024/03/09 15:10:39;;;;;;;;;;;;;;;5.92;100.00;97828.16;5004310;28;20012;-85
2024/03/09 15:13:06;;;;;;;;;;;;;;;5.92;100.00;97820.28;5005515;28;20350;-85
2024/03/09 15:15:40;;;;;;;;;;;;;;;5.89;100.00;97817.81;5005928;28;19921;-84
2024/03/09 15:18:05;;;;;;;;;;;;;;;5.97;100.00;97814.78;5005441;28;20340;-84
2024/03/09 15:20:31;;;;;;;;;;;;;;;5.93;100.00;97814.06;5023063;28;19918;-83
2024/03/09 15:22:56;;;;;;;;;;;;;;;5.93;100.00;97823.75;5023378;28;19913;-84
2024/03/09 15:25:26;;;;;;;;;;;;;;;5.89;100.00;97823.06;5004445;28;19961;-84
2024/03/09 15:27:51;;;;;;;;;;;;;;;5.89;100.00;97816.94;5022099;28;20295;-84
2024/03/09 15:30:21;;;;;;;;;;;;;;;5.90;100.00;97822.13;5022834;28;20247;-84
2024/03/09 15:32:46;;;;;;;;;;;;;;;5.91;100.00;97815.09;5022933;28;20004;-84
2024/03/09 15:35:15;;;;;;;;;;;;;;;5.92;100.00;97817.66;5022697;28;20012;-83
2024/03/09 15:37:41;;;;;;;;;;;;;;;5.90;100.00;97818.66;5023049;28;20015;-84
2024/03/09 15:40:12;;;;;;;;;;;;;;;5.94;100.00;97825.44;5022495;28;19963;-84
2024/03/09 15:42:38;;;;;;;;;;;;;;;5.94;100.00;97826.28;5005018;28;19921;-84
2024/03/09 15:45:04;;;;;;;;;;;;;;;5.92;100.00;97824.66;5023059;28;20399;-84
2024/03/09 15:47:29;;;;;;;;;;;;;;;5.88;100.00;97813.47;5005100;28;19967;-84
2024/03/09 15:49:54;;;;;;;;;;;;;;;5.93;100.00;97814.06;5022604;28;19961;-84
2024/03/09 15:52:23;;;;;;;;;;;;;;;5.88;100.00;97810.00;5022460;28;19918;-84
2024/03/09 15:54:57;;;;;;;;;;;;;;;5.87;100.00;97809.16;5022524;28;19932;-84
2024/03/09 15:57:22;;;;;;;;;;;;;;;5.91;100.00;97813.31;5001959;28;20300;-84
2024/03/09 15:59:47;;;;;;;;;;;;;;;5.89;100.00;97809.94;5022682;28;19921;-84
2024/03/09 16:02:15;;;;;;;;;;;;;;;5.92;100.00;97807.13;5022100;28;19918;-84
2024/03/09 16:04:40;;;;;;;;;;;;;;;5.91;100.00;97804.59;5004624;28;20007;-84
2024/03/09 16:07:05;;;;;;;;;;;;;;;5.91;100.00;97809.84;5022510;28;20059;-84
2024/03/09 16:09:33;;;;;;;;;;;;;;;5.90;100.00;97808.97;5022273;28;19940;-84
2024/03/09 16:11:58;;;;;;;;;;;;;;;5.90;100.00;97808.13;5020883;28;19925;-84
2024/03/09 16:14:24;;;;;;;;;;;;;;;5.91;100.00;97812.47;5003336;28;19917;-84
2024/03/09 16:16:49;;;;;;;;;;;;;;;5.88;100.00;97813.47;5022237;28;19921;-84
2024/03/09 16:19:14;;;;;;;;;;;;;;;5.90;100.00;97813.38;5022854;28;19998;-84
2024/03/09 16:21:41;;;;;;;;;;;;;;;5.93;100.00;97807.97;5022295;28;19917;-85
2024/03/09 16:24:07;;;;;;;;;;;;;;;5.88;100.00;97810.00;5004220;28;19913;-83
2024/03/09 16:26:33;;;;;;;;;;;;;;;5.94;100.00;97800.00;5003095;28;19917;-87
2024/03/09 16:28:59;;;;;;;;;;;;;;;5.92;100.00;97806.25;5004200;28;20040;-89
2024/03/09 16:31:24;;;;;;;;;;;;;;;5.89;100.00;97801.16;5021877;28;20351;-85
2024/03/09 16:33:50;;;;;;;;;;;;;;;5.91;100.00;97787.03;5411203;22;19938;-82
2024/03/09 16:36:15;;;;;;;;;;;;;;;5.88;100.00;97792.44;4983380;28;19934;-85
2024/03/09 16:38:41;;;;;;;;;;;;;;;5.88;100.00;97789.81;4984673;28;19921;-86
2024/03/09 16:41:08;;;;;;;;;;;;;;;5.89;100.00;97788.91;5000714;28;19925;-84
2024/03/09 16:43:34;;;;;;;;;;;;;;;5.90;100.00;97785.31;4985055;28;19924;-84
2024/03/09 16:46:03;;;;;;;;;;;;;;;5.88;100.00;97792.44;5002499;28;19921;-81
2024/03/09 16:48:29;;;;;;;;;;;;;;;5.89;100.00;97796.78;4984607;28;19964;-84
2024/03/09 16:50:57;;;;;;;;;;;;;;;5.89;100.00;97798.53;4984437;28;20281;-85
2024/03/09 16:53:29;;;;;;;;;;;;;;;5.89;100.00;97791.53;4984290;28;20063;-80
2024/03/09 16:55:57;;;;;;;;;;;;;;;5.90;100.00;97780.06;4983261;28;19925;-84
2024/03/09 16:58:22;;;;;;;;;;;;;;;5.99;100.00;97765.59;5000514;28;19940;-85
2024/03/09 17:00:47;;;;;;;;;;;;;;;5.98;100.00;97766.53;5003022;28;19925;-84
2024/03/09 17:03:15;;;;;;;;;;;;;;;5.93;100.00;97776.41;4984677;28;19925;-84
2024/03/09 17:05:42;;;;;;;;;;;;;;;5.94;100.00;97771.06;5003969;28;20389;-84
2024/03/09 17:08:08;;;;;;;;;;;;;;;5.97;100.00;97775.34;5003794;28;19929;-84
2024/03/09 17:10:36;;;;;;;;;;;;;;;5.99;100.00;97776.13;4982798;28;19917;-82
2024/03/09 17:13:07;;;;;;;;;;;;;;;6.00;100.00;97788.34;4986053;28;19922;-83
2024/03/09 17:15:33;;;;;;;;;;;;;;;5.97;100.00;97789.34;5001440;28;19921;-83
2024/03/09 17:17:59;;;;;;;;;;;;;;;5.99;100.00;97784.00;5001335;28;19922;-85
2024/03/09 17:20:28;;;;;;;;;;;;;;;5.96;100.00;97776.25;4984194;28;19918;-82
2024/03/09 17:23:01;;;;;;;;;;;;;;;5.97;100.00;97781.47;5003422;28;19969;-84
2024/03/09 17:25:27;;;;;;;;;;;;;;;5.97;100.00;97772.72;5003909;28;19976;-90
2024/03/09 17:27:52;;;;;;;;;;;;;;;5.96;100.00;97769.22;5004783;28;20349;-80
2024/03/09 17:30:17;;;;;;;;;;;;;;;5.96;100.00;97769.22;4987719;28;20381;-80
2024/03/09 17:32:43;;;;;;;;;;;;;;;6.00;100.00;97764.69;5008056;28;19918;-85
2024/03/09 17:35:09;;;;;;;;;;;;;;;5.99;100.00;97766.44;5005475;28;20384;-81
2024/03/09 17:38:22;;;;;;;;;;;;;;;5.96;100.00;97771.88;4988911;28;19929;-82
2024/03/09 17:40:47;;;;;;;;;;;;;;;5.93;100.00;97771.16;4916360;29;19950;-85
2024/03/09 17:43:13;;;;;;;;;;;;;;;5.91;100.00;97766.00;4929254;29;19966;-83
2024/03/09 17:45:38;;;;;;;;;;;;;;;5.96;100.00;97752.59;4957982;28;19918;-84
2024/03/09 17:48:07;;;;;;;;;;;;;;;5.95;100.00;97757.00;5004750;28;20345;-85
2024/03/09 17:50:33;;;;;;;;;;;;;;;5.94;100.00;97755.31;5005447;28;19957;-85
2024/03/09 17:52:58;;;;;;;;;;;;;;;5.95;100.00;97767.53;5004922;28;19979;-84
2024/03/09 17:55:23;;;;;;;;;;;;;;;5.89;100.00;97770.50;5003799;28;19918;-86
2024/03/09 17:58:38;;;;;;;;;;;;;;;;;;;;;
2024/03/09 18:00:53;;;;;;;;;;;;;;;5.97;100.00;97752.53;5001085;28;19929;-88
2024/03/09 18:03:18;;;;;;;;;;;;;;;5.96;100.00;97753.47;5005115;28;19917;-84
2024/03/09 18:05:51;;;;;;;;;;;;;;;5.95;100.00;97746.50;5005531;28;19957;-86
2024/03/09 18:08:28;;;;;;;;;;;;;;;5.94;100.00;97744.78;4988905;28;19922;-88
2024/03/09 18:10:54;;;;;;;;;;;;;;;5.95;100.00;97741.25;4986593;28;20005;-84
2024/03/09 18:13:20;;;;;;;;;;;;;;;5.97;100.00;97734.13;5004870;28;20020;-83
2024/03/09 18:15:46;;;;;;;;;;;;;;;5.94;100.00;97726.38;5006023;28;19925;-83
2024/03/09 18:18:12;;;;;;;;;;;;;;;5.94;100.00;97715.88;5005229;28;19925;-83
2024/03/09 18:20:40;;;;;;;;;;;;;;;5.98;100.00;97716.56;5003236;28;19921;-84
2024/03/09 18:23:08;;;;;;;;;;;;;;;5.96;100.00;97714.03;4986772;28;20368;-83
2024/03/09 18:25:34;;;;;;;;;;;;;;;5.97;100.00;97702.59;5003140;28;19936;-87
2024/03/09 18:28:01;;;;;;;;;;;;;;;5.93;100.00;97701.03;5004238;28;19921;-83
2024/03/09 18:30:28;;;;;;;;;;;;;;;5.89;100.00;97702.16;5004458;28;19926;-85
2024/03/09 18:32:54;;;;;;;;;;;;;;;5.91;100.00;97704.69;5004866;28;19971;-87
2024/03/09 18:35:23;;;;;;;;;;;;;;;5.94;100.00;97689.59;5003953;28;19921;-85
2024/03/09 18:37:49;;;;;;;;;;;;;;;5.94;100.00;97692.22;5004544;28;19921;-84
2024/03/09 18:40:14;;;;;;;;;;;;;;;5.98;100.00;97682.41;5003661;28;19957;-91
2024/03/09 18:42:40;;;;;;;;;;;;;;;5.91;100.00;97674.00;5003664;28;20001;-87
2024/03/09 18:45:06;;;;;;;;;;;;;;;5.92;100.00;97675.69;5005158;28;20387;-86
2024/03/09 18:47:32;;;;;;;;;;;;;;;5.93;100.00;97666.84;5004138;28;19922;-84
2024/03/09 18:49:57;;;;;;;;;;;;;;;5.92;100.00;97674.81;5002230;28;20012;-84